Time;durP1;ratioP1;P1;durP2;ratioP2;P2;SDS_P1;SDS_P2;PMS_P1;PMS_P2;Temp;Humidity;BMP_temperature;BMP_pressure;BME280_temperature;BME280_humidity;BME280_pressure;Samples;Min_cycle;Max_cycle;Signal;HPM_P1;HPM_P2
2021/06/16 00:00:50;;;;;;;11.20;7.45;;;;;;;20.46;66.60;99910.69;5096079;28;20056;-48
2021/06/16 00:03:20;;;;;;;10.05;7.53;;;;;;;20.44;66.59;99915.28;5096274;28;20432;-48
2021/06/16 00:05:46;;;;;;;13.57;7.40;;;;;;;20.44;66.72;99917.06;5095065;28;20074;-48
2021/06/16 00:08:11;;;;;;;10.40;7.70;;;;;;;20.40;66.74;99913.75;5095598;28;20090;-48
2021/06/16 00:10:37;;;;;;;9.73;7.40;;;;;;;20.39;66.54;99919.19;5095751;28;20048;-48
2021/06/16 00:13:03;;;;;;;8.85;6.63;;;;;;;20.38;66.81;99918.34;5095660;28;20386;-48
2021/06/16 00:15:32;;;;;;;13.60;7.20;;;;;;;20.36;66.51;99912.25;5095847;28;20036;-48
2021/06/16 00:17:58;;;;;;;9.55;6.22;;;;;;;20.31;66.57;99917.00;5095995;28;20593;-48
2021/06/16 00:20:24;;;;;;;10.02;7.40;;;;;;;20.28;66.74;99923.38;5095025;28;20056;-48
2021/06/16 00:22:50;;;;;;;8.23;6.63;;;;;;;20.23;66.58;99922.81;5094950;28;20138;-48
2021/06/16 00:25:16;;;;;;;10.75;7.55;;;;;;;20.21;66.73;99926.50;5095656;28;20439;-48
2021/06/16 00:27:41;;;;;;;9.77;7.47;;;;;;;20.16;66.88;99925.97;5095688;28;20047;-48
2021/06/16 00:30:08;;;;;;;9.63;7.40;;;;;;;20.10;67.01;99924.53;5096131;28;20387;-48
2021/06/16 00:32:34;;;;;;;11.43;8.45;;;;;;;20.05;67.23;99923.97;5096385;28;20047;-48
2021/06/16 00:35:00;;;;;;;9.80;8.18;;;;;;;20.00;67.33;99923.41;5098310;28;20040;-48
2021/06/16 00:37:26;;;;;;;9.95;7.70;;;;;;;19.95;67.45;99918.34;5099308;28;20109;-48
2021/06/16 00:39:53;;;;;;;11.38;8.80;;;;;;;19.91;67.62;99914.19;5098981;28;20144;-48
2021/06/16 00:42:24;;;;;;;10.65;8.48;;;;;;;19.88;67.95;99922.34;5099294;28;20051;-48
2021/06/16 00:44:51;;;;;;;12.83;8.77;;;;;;;19.79;68.27;99913.16;5099036;28;20068;-48
2021/06/16 00:47:17;;;;;;;13.02;9.35;;;;;;;19.76;68.43;99916.00;5098791;28;20313;-48
2021/06/16 00:49:42;;;;;;;11.95;9.13;;;;;;;19.73;68.58;99921.50;5099127;28;20048;-48
2021/06/16 00:52:08;;;;;;;15.15;9.30;;;;;;;19.70;68.94;99916.38;5099081;28;20435;-48
2021/06/16 00:54:34;;;;;;;13.75;10.23;;;;;;;19.65;69.32;99921.09;5099523;28;20052;-48
2021/06/16 00:57:01;;;;;;;13.75;9.48;;;;;;;19.60;69.36;99920.50;5097886;28;20043;-48
2021/06/16 00:59:31;;;;;;;12.60;9.40;;;;;;;19.57;69.62;99921.56;5098669;28;20097;-48
2021/06/16 01:01:56;;;;;;;15.25;10.95;;;;;;;19.51;69.94;99921.91;5098016;28;20085;-48
2021/06/16 01:04:23;;;;;;;13.23;9.63;;;;;;;19.48;70.00;99924.75;5097825;28;20048;-48
2021/06/16 01:06:51;;;;;;;12.70;8.98;;;;;;;19.42;69.93;99919.81;5098709;28;20043;-48
2021/06/16 01:09:44;;;;;;;13.55;10.40;;;;;;;19.36;71.20;99917.50;5097888;28;20055;-48
2021/06/16 01:12:17;;;;;;;14.95;10.57;;;;;;;19.30;71.23;99920.53;5098713;28;20052;-48
2021/06/16 01:15:16;;;;;;;17.25;10.85;;;;;;;19.29;71.93;99916.19;5099002;28;20047;-48
2021/06/16 01:17:55;;;;;;;14.10;10.35;;;;;;;19.26;71.44;99911.91;5098920;28;20120;-48
2021/06/16 01:20:33;;;;;;;14.50;11.27;;;;;;;19.24;71.97;99915.56;5098501;28;20108;-48
2021/06/16 01:23:08;;;;;;;15.95;9.32;;;;;;;19.21;71.81;99918.44;5099031;28;20052;-48
2021/06/16 01:25:40;;;;;;;15.25;10.55;;;;;;;19.21;71.62;99918.44;5097331;28;20082;-48
2021/06/16 01:28:07;;;;;;;13.55;10.63;;;;;;;19.13;72.89;99918.88;5080742;28;20464;-48
2021/06/16 01:30:33;;;;;;;16.27;9.82;;;;;;;19.13;72.41;99919.72;5098334;28;20048;-48
2021/06/16 01:32:58;;;;;;;15.23;11.30;;;;;;;19.11;72.61;99926.09;5098065;28;20433;-48
2021/06/16 01:35:26;;;;;;;12.30;9.68;;;;;;;19.07;72.71;99917.44;5080428;28;20039;-48
2021/06/16 01:37:51;;;;;;;18.50;11.68;;;;;;;19.08;72.98;99918.31;5080584;28;20126;-48
2021/06/16 01:40:18;;;;;;;15.10;10.75;;;;;;;19.04;73.31;99919.41;5098135;28;20059;-48
2021/06/16 01:42:44;;;;;;;14.05;10.45;;;;;;;18.99;73.46;99910.88;5097161;28;20062;-48
2021/06/16 01:45:10;;;;;;;15.38;10.73;;;;;;;19.01;73.33;99911.63;5080388;28;20047;-48
2021/06/16 01:47:36;;;;;;;16.50;10.75;;;;;;;19.00;73.43;99907.28;5096757;28;20113;-48
2021/06/16 01:50:02;;;;;;;13.48;11.05;;;;;;;18.96;73.85;99909.25;5080303;28;20043;-48
2021/06/16 01:52:28;;;;;;;14.32;10.95;;;;;;;18.92;73.63;99907.72;5097664;28;20044;-48
2021/06/16 01:54:53;;;;;;;14.82;11.07;;;;;;;18.92;73.76;99908.56;5080459;28;20044;-48
2021/06/16 01:57:20;;;;;;;12.50;10.15;;;;;;;18.91;73.67;99908.66;5096937;28;20040;-48
2021/06/16 01:59:45;;;;;;;17.58;11.55;;;;;;;18.88;73.64;99915.00;5096934;28;20063;-48
2021/06/16 02:02:11;;;;;;;14.77;12.30;;;;;;;18.85;74.03;99906.38;5097751;28;20436;-48
2021/06/16 02:04:37;;;;;;;16.77;11.55;;;;;;;18.82;74.05;99912.72;5079740;28;20113;-48
2021/06/16 02:07:08;;;;;;;13.38;11.05;;;;;;;18.84;74.11;99917.91;5079558;28;20044;-48
2021/06/16 02:09:34;;;;;;;18.27;12.20;;;;;;;18.78;74.14;99926.22;5096743;28;20076;-48
2021/06/16 02:12:01;;;;;;;15.43;11.55;;;;;;;18.75;74.52;99921.97;5079672;28;20380;-48
2021/06/16 02:14:27;;;;;;;17.90;13.23;;;;;;;18.71;74.79;99925.69;5079939;28;20043;-48
2021/06/16 02:16:56;;;;;;;14.98;11.63;;;;;;;18.71;74.53;99925.69;5097460;28;20055;-48
2021/06/16 02:19:26;;;;;;;14.02;11.25;;;;;;;18.65;74.36;99921.59;5063607;28;20486;-48
2021/06/16 02:21:52;;;;;;;17.75;11.05;;;;;;;18.68;74.51;99933.81;5080002;28;20040;-48
2021/06/16 02:24:18;;;;;;;17.33;11.95;;;;;;;18.66;74.67;99933.06;5097347;28;20150;-48
2021/06/16 02:26:44;;;;;;;14.90;11.18;;;;;;;18.62;74.88;99937.69;5095861;28;20112;-48
2021/06/16 02:29:10;;;;;;;13.65;10.75;;;;;;;18.63;74.86;99930.59;5097005;28;20058;-48
2021/06/16 02:31:36;;;;;;;14.52;11.60;;;;;;;18.65;74.63;99921.59;5096943;28;20036;-48
2021/06/16 02:34:02;;;;;;;12.57;10.52;;;;;;;18.64;74.65;99919.03;5097048;28;20075;-48
2021/06/16 02:36:28;;;;;;;14.70;10.85;;;;;;;18.69;74.62;99923.13;5095875;28;20468;-48
2021/06/16 02:38:57;;;;;;;14.65;12.07;;;;;;;18.71;74.73;99925.69;5095836;28;20074;-48
2021/06/16 02:41:23;;;;;;;14.30;10.95;;;;;;;18.70;74.81;99929.28;5096396;28;20040;-48
2021/06/16 02:43:50;;;;;;;13.80;11.77;;;;;;;18.70;75.13;99929.28;5096042;28;20048;-48
2021/06/16 02:46:16;;;;;;;17.88;11.95;;;;;;;18.70;74.99;99921.31;5096287;28;20439;-48
2021/06/16 02:48:46;;;;;;;14.32;10.55;;;;;;;18.74;75.06;99933.50;5095777;28;20044;-48
2021/06/16 02:51:12;;;;;;;15.85;11.63;;;;;;;18.74;75.05;99930.00;5095668;28;20047;-48
2021/06/16 02:53:38;;;;;;;16.80;11.18;;;;;;;18.78;74.84;99924.41;5096524;28;20036;-48
2021/06/16 02:56:04;;;;;;;17.65;11.57;;;;;;;18.77;74.90;99924.53;5096326;28;20059;-48
2021/06/16 02:58:32;;;;;;;13.77;10.90;;;;;;;18.78;74.90;99932.38;5096399;28;20119;-48
2021/06/16 03:00:59;;;;;;;16.98;11.00;;;;;;;18.80;75.09;99924.34;5095515;28;20075;-48
2021/06/16 03:03:25;;;;;;;17.02;12.68;;;;;;;18.81;75.06;99934.84;5095545;28;20360;-48
2021/06/16 03:05:51;;;;;;;12.82;10.45;;;;;;;18.81;75.01;99929.53;5078979;28;20044;-48
2021/06/16 03:08:17;;;;;;;15.02;12.23;;;;;;;18.77;75.62;99938.63;5078856;28;20048;-48
2021/06/16 03:10:43;;;;;;;15.68;11.73;;;;;;;18.79;75.58;99943.88;5096553;28;20074;-48
2021/06/16 03:13:08;;;;;;;16.92;12.13;;;;;;;18.78;75.73;99939.47;5096212;28;20516;-48
2021/06/16 03:15:34;;;;;;;19.55;12.13;;;;;;;18.79;75.80;99938.56;5096221;28;20040;-48
2021/06/16 03:18:00;;;;;;;12.95;11.10;;;;;;;18.83;75.43;99937.44;5095332;28;20055;-48
2021/06/16 03:20:28;;;;;;;15.48;13.25;;;;;;;18.84;76.04;99936.50;5062024;28;20051;-48
2021/06/16 03:22:54;;;;;;;14.25;12.50;;;;;;;18.81;76.02;99932.19;5096189;28;20039;-48
2021/06/16 03:25:20;;;;;;;15.70;12.30;;;;;;;18.83;75.70;99942.75;5095062;28;20456;-48
2021/06/16 03:27:46;;;;;;;17.38;12.65;;;;;;;18.79;76.13;99933.25;5095476;28;20044;-48
2021/06/16 03:30:12;;;;;;;14.30;12.13;;;;;;;18.83;75.98;99940.94;5078712;28;20498;-48
2021/06/16 03:32:38;;;;;;;13.65;11.35;;;;;;;18.80;76.28;99942.91;5095180;28;20048;-48
2021/06/16 03:35:04;;;;;;;16.90;12.15;;;;;;;18.78;76.10;99936.84;5095151;28;20112;-48
2021/06/16 03:37:29;;;;;;;15.10;12.35;;;;;;;18.78;76.14;99948.28;5062083;28;20048;-48
2021/06/16 03:39:55;;;;;;;19.60;13.00;;;;;;;18.76;75.98;99950.19;5095440;28;20424;-48
2021/06/16 03:42:21;;;;;;;14.48;12.55;;;;;;;18.76;76.09;99947.53;5095153;28;20501;-48
2021/06/16 03:44:47;;;;;;;24.80;16.40;;;;;;;18.63;76.82;99946.50;5078297;28;20052;-48
2021/06/16 03:47:15;;;;;;;17.67;13.55;;;;;;;18.69;76.50;99947.00;5078578;28;20044;-48
2021/06/16 03:49:42;;;;;;;22.85;13.75;;;;;;;18.72;76.37;99961.94;5078317;28;20116;-48
2021/06/16 03:52:08;;;;;;;16.15;13.60;;;;;;;18.64;76.61;99943.75;5095998;28;20086;-47
2021/06/16 03:54:34;;;;;;;19.38;14.77;;;;;;;18.69;76.65;99964.72;5094519;28;20413;-48
2021/06/16 03:57:00;;;;;;;39.47;23.63;;;;;;;18.74;76.52;99957.38;5078098;28;20131;-48
2021/06/16 03:59:26;;;;;;;23.95;16.23;;;;;;;18.76;76.59;99959.97;5094700;28;20051;-48
2021/06/16 04:01:52;;;;;;;17.77;15.80;;;;;;;18.82;76.49;99960.47;5093849;28;20068;-48
2021/06/16 04:04:17;;;;;;;22.85;16.67;;;;;;;18.86;76.40;99964.66;5092917;28;20044;-48
2021/06/16 04:06:44;;;;;;;19.77;15.63;;;;;;;18.84;76.50;99969.19;5078673;28;20048;-48
2021/06/16 04:09:11;;;;;;;21.92;16.20;;;;;;;18.82;76.79;99970.22;5099594;28;20044;-48
2021/06/16 04:11:37;;;;;;;19.42;15.10;;;;;;;18.86;76.83;99971.75;5082209;28;20052;-48
2021/06/16 04:14:03;;;;;;;23.95;17.00;;;;;;;18.87;76.80;99965.50;5099834;28;20134;-48
2021/06/16 04:16:29;;;;;;;18.50;14.68;;;;;;;18.93;76.88;99975.78;5082367;28;20096;-48
2021/06/16 04:18:55;;;;;;;20.52;17.20;;;;;;;18.94;76.56;99976.63;5098859;28;20047;-48
2021/06/16 04:21:21;;;;;;;27.00;21.92;;;;;;;18.95;76.47;99979.19;5099705;28;20052;-48
2021/06/16 04:23:48;;;;;;;30.90;21.48;;;;;;;18.99;76.19;99988.69;5100424;28;20102;-48
2021/06/16 04:26:15;;;;;;;34.97;24.15;;;;;;;18.98;76.28;99991.41;5099284;28;20048;-48
2021/06/16 04:28:41;;;;;;;34.55;23.90;;;;;;;18.99;76.29;99986.03;5099483;28;20051;-48
2021/06/16 04:31:06;;;;;;;28.33;21.00;;;;;;;19.01;76.28;99992.13;5099541;28;20415;-48
2021/06/16 04:33:32;;;;;;;36.42;26.63;;;;;;;19.01;76.03;99991.25;5099141;28;20196;-48
2021/06/16 04:35:59;;;;;;;41.88;28.70;;;;;;;18.83;76.64;99990.50;5098326;28;20040;-48
2021/06/16 04:38:25;;;;;;;40.33;27.15;;;;;;;18.76;76.94;99989.13;5081391;28;20044;-48
2021/06/16 04:40:50;;;;;;;36.65;26.55;;;;;;;18.81;76.81;99993.22;5099079;28;20055;-48
2021/06/16 04:43:16;;;;;;;37.05;26.48;;;;;;;18.78;76.86;99995.19;5098954;28;20112;-48
2021/06/16 04:45:42;;;;;;;33.20;23.88;;;;;;;18.84;77.04;99992.22;5098984;28;20344;-48
2021/06/16 04:48:08;;;;;;;42.35;29.48;;;;;;;18.87;76.88;99994.69;5099104;28;20082;-48
2021/06/16 04:50:34;;;;;;;34.70;25.00;;;;;;;18.87;76.85;99994.69;5099120;28;20048;-48
2021/06/16 04:53:00;;;;;;;37.53;25.85;;;;;;;18.90;76.71;99998.03;5098796;28;20433;-48
2021/06/16 04:55:25;;;;;;;41.08;28.95;;;;;;;18.94;76.52;100003.16;5097939;28;20036;-48
2021/06/16 04:57:51;;;;;;;36.55;28.95;;;;;;;18.95;76.21;100010.16;5098162;28;20040;-48
2021/06/16 05:00:18;;;;;;;36.88;26.05;;;;;;;18.87;76.84;100003.50;5098933;28;20052;-48
2021/06/16 05:02:43;;;;;;;42.38;29.05;;;;;;;18.88;76.67;100009.66;5098895;28;20055;-48
2021/06/16 05:05:10;;;;;;;61.08;37.15;;;;;;;18.84;76.65;100008.97;5097733;28;20040;-48
2021/06/16 05:07:37;;;;;;;41.28;27.67;;;;;;;18.79;77.00;100002.25;5098429;28;20441;-48
2021/06/16 05:10:07;;;;;;;41.35;27.88;;;;;;;18.85;76.88;100012.50;5098180;28;20040;-48
2021/06/16 05:12:32;;;;;;;41.67;29.90;;;;;;;18.80;76.67;100011.91;5098354;28;20436;-48
2021/06/16 05:14:58;;;;;;;43.42;30.35;;;;;;;18.80;76.91;100010.09;5098417;28;20121;-48
2021/06/16 05:17:24;;;;;;;35.38;27.95;;;;;;;18.82;76.96;100023.28;5098168;28;20043;-48
2021/06/16 05:19:56;;;;;;;38.15;28.23;;;;;;;18.74;77.17;100023.69;5098515;28;20044;-48
2021/06/16 05:22:22;;;;;;;41.83;28.02;;;;;;;18.69;77.31;100015.13;5098599;28;20040;-48
2021/06/16 05:24:48;;;;;;;36.28;27.17;;;;;;;18.72;77.26;100019.38;5080775;28;20055;-48
2021/06/16 05:27:15;;;;;;;34.30;25.27;;;;;;;18.77;77.30;100018.22;5080229;28;20452;-48
2021/06/16 05:29:42;;;;;;;32.92;24.73;;;;;;;18.88;77.27;100022.94;5097559;28;20059;-48
2021/06/16 05:32:08;;;;;;;32.55;25.27;;;;;;;18.95;76.89;100024.31;5098335;28;20052;-48
2021/06/16 05:34:34;;;;;;;28.38;23.17;;;;;;;19.04;76.76;100029.09;5098249;28;20493;-48
2021/06/16 05:37:00;;;;;;;33.90;23.58;;;;;;;19.12;76.49;100026.00;5098203;28;20051;-48
2021/06/16 05:39:25;;;;;;;33.67;26.08;;;;;;;19.13;76.34;100023.25;5098199;28;20052;-48
2021/06/16 05:41:51;;;;;;;36.95;26.40;;;;;;;19.07;76.35;100020.94;5097826;28;20044;-48
2021/06/16 05:44:17;;;;;;;33.45;26.67;;;;;;;19.07;76.36;100020.94;5097774;28;20063;-48
2021/06/16 05:46:43;;;;;;;34.65;25.42;;;;;;;19.11;76.39;100026.97;5097730;28;20044;-48
2021/06/16 05:49:09;;;;;;;30.52;24.67;;;;;;;19.18;76.19;100023.00;5097968;28;20051;-48
2021/06/16 05:51:35;;;;;;;30.63;24.55;;;;;;;19.23;76.07;100026.25;5097669;28;20131;-48
2021/06/16 05:54:00;;;;;;;29.52;22.17;;;;;;;19.30;75.83;100021.44;5097798;28;20043;-48
2021/06/16 05:56:26;;;;;;;32.88;24.70;;;;;;;19.35;75.76;100024.69;5097529;28;20055;-48
2021/06/16 05:58:52;;;;;;;33.40;24.70;;;;;;;19.42;75.73;100025.19;5097804;28;20044;-48
2021/06/16 06:01:18;;;;;;;32.40;26.65;;;;;;;19.40;75.40;100027.91;5096677;28;20040;-48
2021/06/16 06:03:44;;;;;;;32.75;24.13;;;;;;;19.40;75.35;100030.56;5097696;28;20044;-48
2021/06/16 06:06:10;;;;;;;31.10;22.85;;;;;;;19.43;75.46;100022.44;5097646;28;20131;-48
2021/06/16 06:08:36;;;;;;;26.38;22.55;;;;;;;19.52;75.16;100023.69;5097221;28;20456;-48
2021/06/16 06:11:02;;;;;;;31.95;20.92;;;;;;;19.64;75.01;100028.34;5097547;28;20052;-48
2021/06/16 06:13:28;;;;;;;30.00;21.42;;;;;;;19.71;74.64;100031.47;5097464;28;20062;-51
2021/06/16 06:15:54;;;;;;;26.55;20.70;;;;;;;19.87;74.38;100037.59;5097277;28;20036;-51
2021/06/16 06:18:20;;;;;;;29.10;22.65;;;;;;;19.99;74.39;100034.19;5097177;28;20050;-51
2021/06/16 06:20:45;;;;;;;30.25;22.77;;;;;;;20.14;73.45;100031.53;5097096;28;20127;-51
2021/06/16 06:23:11;;;;;;;28.10;21.52;;;;;;;20.21;73.57;100031.06;5097075;28;20044;-51
2021/06/16 06:25:37;;;;;;;28.10;20.52;;;;;;;20.38;73.20;100040.69;5096092;28;20048;-51
2021/06/16 06:28:03;;;;;;;25.77;20.55;;;;;;;20.62;72.62;100043.66;5097577;28;20044;-51
2021/06/16 06:30:29;;;;;;;22.13;18.05;;;;;;;20.84;72.09;100047.63;5096437;28;20435;-51
2021/06/16 06:32:54;;;;;;;24.98;18.85;;;;;;;21.08;71.48;100042.50;5097235;28;20052;-51
2021/06/16 06:35:20;;;;;;;23.83;17.77;;;;;;;21.25;71.13;100042.25;5096828;28;20444;-51
2021/06/16 06:37:46;;;;;;;23.55;18.75;;;;;;;21.40;70.37;100043.09;5097113;28;20044;-51
2021/06/16 06:40:12;;;;;;;26.20;19.27;;;;;;;21.56;69.69;100041.13;5096115;28;20428;-51
2021/06/16 06:42:38;;;;;;;24.80;17.88;;;;;;;21.86;69.54;100043.50;5096980;28;20105;-51
2021/06/16 06:45:07;;;;;;;20.80;17.27;;;;;;;22.36;67.37;100041.03;5096059;28;20052;-51
2021/06/16 06:47:33;;;;;;;21.00;17.17;;;;;;;22.85;66.09;100042.88;5096692;28;20036;-51
2021/06/16 06:49:59;;;;;;;20.65;15.80;;;;;;;23.27;64.87;100040.72;5096865;28;20105;-51
2021/06/16 06:52:25;;;;;;;22.55;15.30;;;;;;;23.68;63.71;100045.63;5096800;28;20333;-51
2021/06/16 06:54:50;;;;;;;23.27;15.05;;;;;;;24.12;63.29;100045.88;5096804;28;20436;-52
2021/06/16 06:57:16;;;;;;;19.38;14.98;;;;;;;24.51;61.22;100047.28;5062515;28;20055;-52
2021/06/16 06:59:42;;;;;;;19.95;13.27;;;;;;;24.83;60.75;100047.38;5096689;28;20348;-52
2021/06/16 07:02:08;;;;;;;17.70;12.07;;;;;;;25.22;59.81;100046.94;5096613;28;20101;-52
2021/06/16 07:04:34;;;;;;;20.83;13.73;;;;;;;25.51;58.27;100049.91;5095714;28;20093;-52
2021/06/16 07:07:00;;;;;;;18.98;14.85;;;;;;;25.80;56.94;100044.75;5096477;28;20040;-52
2021/06/16 07:09:25;;;;;;;18.08;11.85;;;;;;;25.96;56.58;100045.19;5096310;28;20048;-53
2021/06/16 07:11:52;;;;;;;17.00;11.57;;;;;;;26.11;55.47;100027.78;5096483;28;20063;-52
2021/06/16 07:14:18;;;;;;;19.42;11.70;;;;;;;26.19;55.41;100031.63;5096488;28;20044;-52
2021/06/16 07:16:43;;;;;;;14.93;11.45;;;;;;;26.50;54.60;100036.06;5096175;28;20356;-52
2021/06/16 07:19:09;;;;;;;18.90;12.52;;;;;;;26.92;54.29;100027.84;5078388;28;20060;-52
2021/06/16 07:21:35;;;;;;;14.45;10.40;;;;;;;27.38;53.09;100039.81;5096190;28;20055;-52
2021/06/16 07:24:01;;;;;;;12.88;9.63;;;;;;;27.72;52.25;100029.50;5096357;28;20059;-52
2021/06/16 07:26:27;;;;;;;14.55;9.60;;;;;;;28.04;51.21;100031.00;5095954;28;20056;-52
2021/06/16 07:28:53;;;;;;;11.70;8.68;;;;;;;28.38;50.87;100034.03;5096236;28;20044;-52
2021/06/16 07:31:18;;;;;;;12.75;9.15;;;;;;;28.45;49.42;100034.31;5096091;28;20169;-53
2021/06/16 07:33:44;;;;;;;12.15;8.50;;;;;;;28.65;48.88;100025.16;5096563;28;20047;-53
2021/06/16 07:36:10;;;;;;;11.13;8.18;;;;;;;28.69;48.81;100032.94;5096287;28;20035;-53
2021/06/16 07:38:36;;;;;;;10.40;8.25;;;;;;;28.92;47.89;100031.53;5095712;28;20044;-53
2021/06/16 07:41:02;;;;;;;10.65;8.77;;;;;;;28.90;47.36;100030.84;5095846;28;20131;-55
2021/06/16 07:43:28;;;;;;;11.52;8.15;;;;;;;28.94;47.75;100026.84;5098938;28;20447;-56
2021/06/16 07:45:53;;;;;;;9.52;7.15;;;;;;;28.99;47.87;100032.63;5099918;28;20117;-51
2021/06/16 07:48:19;;;;;;;12.73;9.00;;;;;;;28.98;46.87;100033.63;5100229;28;20494;-51
2021/06/16 07:50:45;;;;;;;14.35;7.95;;;;;;;29.15;46.90;100039.22;5100010;28;20432;-51
2021/06/16 07:53:11;;;;;;;12.75;7.25;;;;;;;29.19;46.80;100038.78;5099885;28;20101;-51
2021/06/16 07:55:39;;;;;;;12.45;8.50;;;;;;;29.08;46.61;100031.72;5098860;28;20058;-51
2021/06/16 07:58:07;;;;;;;10.95;8.10;;;;;;;28.78;47.06;100032.88;5099549;28;20080;-51
2021/06/16 08:00:34;;;;;;;11.10;6.93;;;;;;;28.65;47.28;100029.69;5100268;28;20173;-51
2021/06/16 08:03:00;;;;;;;10.63;7.18;;;;;;;28.42;47.07;100035.47;5100054;28;20347;-51
2021/06/16 08:05:26;;;;;;;8.38;6.80;;;;;;;28.23;47.87;100032.81;5065685;28;20044;-51
2021/06/16 08:07:51;;;;;;;8.73;6.20;;;;;;;28.19;48.32;100036.78;5100601;28;20059;-51
2021/06/16 08:10:17;;;;;;;8.38;6.40;;;;;;;28.11;47.44;100039.34;5099646;28;20036;-51
2021/06/16 08:12:43;;;;;;;9.57;6.40;;;;;;;28.41;47.75;100030.22;5099778;28;20048;-51
2021/06/16 08:15:09;;;;;;;9.68;6.43;;;;;;;28.87;47.05;100028.44;5098567;28;20452;-51
2021/06/16 08:17:35;;;;;;;10.38;6.40;;;;;;;29.14;45.72;100030.28;5097529;28;20052;-51
2021/06/16 08:20:03;;;;;;;9.13;5.90;;;;;;;29.38;45.12;100028.81;5097521;28;20036;-51
2021/06/16 08:22:29;;;;;;;8.32;5.60;;;;;;;29.36;44.79;100029.00;5097683;28;20193;-49
2021/06/16 08:25:00;;;;;;;10.30;5.50;;;;;;;29.54;44.99;100039.75;5097672;28;20052;-49
2021/06/16 08:27:25;;;;;;;6.80;5.75;;;;;;;29.69;45.32;100032.84;5097249;28;20048;-49
2021/06/16 08:29:51;;;;;;;5.82;4.57;;;;;;;29.88;45.07;100039.06;5097670;28;20048;-49
2021/06/16 08:32:17;;;;;;;5.40;4.70;;;;;;;30.16;45.16;100028.94;5099238;28;20104;-50
2021/06/16 08:34:43;;;;;;;13.18;6.60;;;;;;;30.02;42.76;100030.38;5099457;28;20386;-51
2021/06/16 08:37:08;;;;;;;7.97;5.55;;;;;;;30.00;43.60;100035.13;5099415;28;20040;-51
2021/06/16 08:39:34;;;;;;;9.73;5.65;;;;;;;29.85;42.73;100031.28;5099110;28;20040;-51
2021/06/16 08:42:00;;;;;;;6.25;5.65;;;;;;;29.79;43.43;100033.59;5098221;28;20325;-51
2021/06/16 08:44:26;;;;;;;9.15;5.88;;;;;;;29.95;44.42;100029.34;5099048;28;20036;-51
2021/06/16 08:46:53;;;;;;;7.22;5.05;;;;;;;30.14;44.03;100033.69;5098287;28;20058;-51
2021/06/16 08:49:18;;;;;;;6.78;4.97;;;;;;;30.27;43.82;100031.44;5099209;28;20111;-52
2021/06/16 08:51:44;;;;;;;8.02;5.38;;;;;;;30.41;43.06;100036.22;5098037;28;20051;-51
2021/06/16 08:54:10;;;;;;;7.30;5.43;;;;;;;30.37;43.00;100031.31;5099085;28;20052;-51
2021/06/16 08:56:36;;;;;;;7.55;4.90;;;;;;;30.38;43.23;100025.75;5099049;28;20051;-51
2021/06/16 08:59:02;;;;;;;7.60;5.40;;;;;;;30.40;43.13;100022.91;5098759;28;20040;-51
2021/06/16 09:01:28;;;;;;;11.82;4.85;;;;;;;30.57;43.39;100030.06;5098047;28;20133;-51
2021/06/16 09:03:53;;;;;;;7.72;5.63;;;;;;;30.46;41.67;100027.66;5098874;28;20472;-51
2021/06/16 09:06:19;;;;;;;9.13;4.80;;;;;;;30.58;42.16;100031.78;5098586;28;20048;-51
2021/06/16 09:08:55;;;;;;;7.00;5.18;;;;;;;30.70;41.69;100025.03;5098646;28;20055;-51
2021/06/16 09:11:21;;;;;;;7.20;5.60;;;;;;;30.50;40.92;100024.44;5098770;28;20075;-51
2021/06/16 09:13:47;;;;;;;7.72;4.75;;;;;;;30.43;42.10;100020.72;5098724;28;20044;-51
2021/06/16 09:16:29;;;;;;;9.98;4.40;;;;;;;30.68;41.13;100028.91;5098655;28;20059;-51
2021/06/16 09:18:56;;;;;;;10.95;5.45;;;;;;;30.69;41.71;100027.91;5097817;28;20044;-51
2021/06/16 09:21:35;;;;;;;11.07;5.60;;;;;;;30.66;41.65;100026.38;5098552;28;20044;-51
2021/06/16 09:24:01;;;;;;;6.10;4.82;;;;;;;30.72;42.05;100025.75;5097683;28;20051;-51
2021/06/16 09:26:34;;;;;;;7.05;4.70;;;;;;;30.90;41.54;100027.50;5097123;28;20052;-51
2021/06/16 09:29:00;;;;;;;6.47;4.68;;;;;;;30.82;40.33;100022.09;5098693;28;20047;-51
2021/06/16 09:31:26;;;;;;;10.07;5.60;;;;;;;30.77;40.61;100022.56;5098124;28;20042;-51
2021/06/16 09:33:54;;;;;;;6.65;4.82;;;;;;;30.65;41.09;100031.97;5097465;28;20127;-51
2021/06/16 09:36:22;;;;;;;8.95;5.20;;;;;;;30.78;41.19;100023.41;5098284;28;20052;-51
2021/06/16 09:38:48;;;;;;;11.60;5.38;;;;;;;30.86;40.90;100020.75;5097061;28;20436;-51
2021/06/16 09:41:18;;;;;;;8.82;5.22;;;;;;;31.02;40.98;100030.75;5097855;28;20398;-51
2021/06/16 09:43:44;;;;;;;7.82;4.57;;;;;;;31.14;40.92;100026.75;5097896;28;20048;-51
2021/06/16 09:46:12;;;;;;;6.70;4.55;;;;;;;31.16;40.18;100038.22;5097845;28;20036;-51
2021/06/16 09:48:39;;;;;;;11.02;4.72;;;;;;;31.07;39.39;100028.38;5097992;28;20048;-51
2021/06/16 09:51:10;;;;;;;9.18;5.03;;;;;;;30.93;39.55;100025.31;5098811;28;20123;-51
2021/06/16 09:53:58;;;;;;;14.27;4.85;;;;;;;31.07;39.49;100031.97;5080515;28;20048;-51
2021/06/16 09:56:29;;;;;;;7.05;4.28;;;;;;;31.10;40.14;100026.22;5080210;28;20052;-51
2021/06/16 09:58:55;;;;;;;6.13;4.23;;;;;;;31.29;39.90;100022.34;5097986;28;20047;-51
2021/06/16 10:01:49;;;;;;;7.00;5.13;;;;;;;31.41;40.42;100021.03;5097583;28;20274;-52
2021/06/16 10:04:31;;;;;;;5.90;4.45;;;;;;;31.46;38.15;100020.56;5095899;28;20086;-51
2021/06/16 10:07:09;;;;;;;;;;;;;;;31.22;39.10;100023.19;5098137;28;20058;-52
2021/06/16 10:09:35;;;;;;;8.10;4.57;;;;;;;31.35;37.95;100019.00;5096806;28;19989;-51
2021/06/16 10:12:00;;;;;;;4.68;3.80;;;;;;;31.46;38.87;100014.28;5079698;28;20111;-51
2021/06/16 10:14:26;;;;;;;9.38;4.28;;;;;;;31.58;39.08;100029.19;5079797;28;20044;-51
2021/06/16 10:16:52;;;;;;;7.82;4.25;;;;;;;31.64;37.95;100023.94;5079516;28;20048;-51
2021/06/16 10:19:18;;;;;;;6.75;3.78;;;;;;;31.63;38.32;100018.69;5079726;28;20062;-51
2021/06/16 10:21:44;;;;;;;6.68;3.80;;;;;;;31.58;38.45;100024.59;5097675;28;20356;-51
2021/06/16 10:24:10;;;;;;;4.97;3.55;;;;;;;31.45;38.64;100018.00;5096158;28;20364;-51
2021/06/16 10:26:35;;;;;;;8.45;4.88;;;;;;;31.28;37.64;100017.97;5097003;28;20052;-51
2021/06/16 10:29:04;;;;;;;6.85;4.60;;;;;;;31.02;37.93;100018.09;5096333;28;20044;-51
2021/06/16 10:31:34;;;;;;;6.43;3.50;;;;;;;30.87;38.89;100020.56;5079599;28;20048;-52
2021/06/16 10:34:00;;;;;;;6.05;4.03;;;;;;;30.81;39.14;100015.84;5096067;28;20070;-52
2021/06/16 10:36:26;;;;;;;4.93;3.60;;;;;;;30.78;39.54;100021.56;5096826;28;20036;-51
2021/06/16 10:38:58;;;;;;;8.45;5.55;;;;;;;30.84;38.47;100017.34;5096122;28;20058;-51
2021/06/16 10:41:35;;;;;;;8.90;4.35;;;;;;;30.69;39.38;100012.56;5096969;28;20521;-52
2021/06/16 10:44:21;;;;;;;7.05;4.50;;;;;;;30.83;38.96;100010.25;5096938;28;20341;-52
2021/06/16 10:47:00;;;;;;;6.55;4.68;;;;;;;30.88;38.34;100008.75;5096282;28;20040;-51
2021/06/16 10:49:49;;;;;;;8.18;4.53;;;;;;;31.02;38.86;100018.09;5096588;28;20387;-51
2021/06/16 10:52:16;;;;;;;5.10;4.22;;;;;;;31.07;38.29;100014.88;5096947;28;20056;-50
2021/06/16 10:55:04;;;;;;;6.90;4.00;;;;;;;31.19;38.77;100014.38;5096813;28;20047;-52
2021/06/16 10:57:30;;;;;;;6.93;3.83;;;;;;;31.39;38.25;100024.94;5096513;28;20338;-51
2021/06/16 10:59:55;;;;;;;5.85;3.83;;;;;;;31.46;37.99;100009.75;5096717;28;20052;-52
2021/06/16 11:02:24;;;;;;;8.70;4.75;;;;;;;31.46;37.61;100009.75;5096982;28;20399;-51
2021/06/16 11:04:50;;;;;;;9.95;5.15;;;;;;;31.35;38.26;100015.47;5095818;28;20048;-52
2021/06/16 11:07:43;;;;;;;5.78;3.92;;;;;;;31.32;37.63;100018.47;5096396;28;20040;-51
2021/06/16 11:10:08;;;;;;;;;;;;;;;31.01;38.12;100021.81;5095646;28;20562;-52
2021/06/16 11:12:41;;;;;;;5.78;3.58;;;;;;;31.08;37.46;100019.28;5096361;28;19920;-51
2021/06/16 11:15:24;;;;;;;8.02;4.35;;;;;;;30.96;38.43;100016.03;5096148;28;20436;-51
2021/06/16 11:17:51;;;;;;;9.93;4.40;;;;;;;30.70;37.70;100018.78;5096550;28;20112;-52
2021/06/16 11:20:38;;;;;;;7.00;3.67;;;;;;;30.53;37.03;100014.34;5078522;28;20052;-51